Perth, Western Australia

6:07 AM WST on August 31, 2014 (GMT +0800)
Woodbridge | Change Station
CLOSE
Current Station
Personal Weather Station
Location: Woodbridge, WESTERN AUSTRALIA
Elevation: 16 ft
Nearby Weather Stations

Elev 16 ft 31.89 °S, 116.00 °E | Updated 5 minutes ago

Partly Cloudy
Partly Cloudy
51.8 °F
Feels Like 51.8 °F
N
0.0
Wind Variable Wind from WSW
Gusts 0.0 mph

Today
High -- | Low -- °F
--% Chance of Precip.
Yesterday
High -- | Low -- °F
Precip. -- in
6:34 AM 5:58 PM
Waxing Crescent, 25% visible
Pressure 30.06 in
Visibility 6.2 miles
Clouds Few 4500 ft
Dew Point 50 °F
Humidity 95%
Rainfall 0.00 in
Snow Depth Not available.
UV 0 out of 12
Pollen Not available.
Air Quality Not available.
Flu Activity Not available.
METAR YPPH 302200Z 16003KT 9999 FEW045 10/10 Q1018 NOSIG

More Conditions Fewer Conditions

Pressure 30.06 in
Visibility 6.2 miles
Clouds Few 4500 ft
Dew Point 50 °F
Humidity 95%
Rainfall 0.00 in
Snow Depth Not available.
UV 0 out of 12
Pollen Not available.
Air Quality Not available.
Flu Activity Not available.
METAR YPPH 302200Z 16003KT 9999 FEW045 10/10 Q1018 NOSIG

More Conditions Fewer Conditions

10-Day Weather Forecast

Almanac

Astronomy

Aug. 31, 2014 Rise Set
Actual Time 6:34 AM WST 5:58 PM WST
Civil Twilight 6:10 AM WST 6:23 PM WST
Nautical Twilight 5:41 AM WST 6:51 PM WST
Astronomical Twilight 5:13 AM WST 7:20 PM WST
Moon 9:35 AM WST (8/31) 11:10 PM WST (8/31)
Length of Visible Light 12h 13m
Length of Day
11h 24m
Tomorrow will be 1m 50s longer.
Waxing Crescent, 25% of the Moon is Illuminated
Aug 30
Waxing Crescent
Sep 2
First Quarter
Sep 8
Full
Sep 15
Last Quarter
Sep 24
New

Yesterday's Extremes

Country Highs Country Lows

Community

WunderPhotos

Upload Photos

1,748,657 photos uploaded!

WunderBlogs® & News

Nearby

Snow Depth

Not available.

Earthquake Activity

City Distance Mag. Time & Date
No recent earthquake activity has been reported nearby.
Minimum magnitude displayed is 2.5.

Coastal Water Temperatures

Place Temperature
No Stations Reporting

Nearby Weather Stations